Robert G. Brownlee — WCY4665 — position and weather

sailwx.info

Track history (hours):
 
Tides and Currents Weather Stations Pressure Air Temp Water Temp Dewpoint Dewpoint Depression Visibility Wind Speed Wind Dir Waves Ship Positions

Robert G. Brownlee

Owner: MARINE SCIENCE INSTITUTE, REDWOOD CITY, CA. More information available from US FCC via Universal Licensing System and Coast Guard Vessel Documentation Center.

Last reported at 2017-Oct-22 01:26 UTC. Time now 2017-Oct-23 02:41 UTC.
Position N 37°55' W 122°21'.

MMSI: 366751060.

Date/timePositionNaut miles runAvg speedWind from/ knotsBaromVisibWave heightAir tempDewpointWater temp
2017-Oct-22 01:26N 37°55' W 122°21'0 0.0
2017-Oct-22 00:55N 37°55' W 122°21'0 0.0
2017-Oct-22 00:27N 37°55' W 122°21'0 0.0
2017-Oct-21 23:58N 37°55' W 122°21'0 0.0
2017-Oct-21 23:29N 37°55' W 122°21'0 0.0
2017-Oct-21 22:56N 37°55' W 122°21'0 0.0
2017-Oct-21 22:28N 37°55' W 122°21'0 0.0
2017-Oct-21 22:00N 37°55' W 122°21'0 0.0
2017-Oct-21 21:21N 37°55' W 122°21'0 0.0
2017-Oct-21 20:43N 37°55' W 122°21'0 0.0
2017-Oct-21 20:24N 37°55' W 122°21'0 0.0
2017-Oct-21 19:59N 37°55' W 122°21'0 0.0
2017-Oct-21 19:30N 37°55' W 122°21'0 0.0
2017-Oct-21 19:00N 37°55' W 122°21'1 2.8
2017-Oct-21 18:30N 37°54' W 122°23'1 1.8
2017-Oct-21 18:00N 37°54' W 122°24'1 2.3
2017-Oct-21 17:30N 37°53' W 122°23'1 1.1
2017-Oct-21 16:54N 37°52' W 122°22'1 1.0
2017-Oct-21 16:24N 37°52' W 122°23'0 0.3
2017-Oct-21 16:00N 37°52' W 122°23'1 1.8
2017-Oct-21 15:31N 37°53' W 122°24'2 4.1
2017-Oct-21 14:56N 37°55' W 122°21'0 0.0
2017-Oct-21 02:02N 37°55' W 122°21'0 0.0
2017-Oct-21 01:32N 37°55' W 122°21'0 0.0
2017-Oct-21 01:25N 37°55' W 122°21'0 0.0
2017-Oct-21 00:16N 37°55' W 122°21'0 0.2
2017-Oct-20 23:56N 37°55' W 122°21'1 1.6
2017-Oct-20 23:30N 37°54' W 122°22'2 3.7
2017-Oct-20 23:00N 37°53' W 122°23'0 0.7
2017-Oct-20 22:24N 37°53' W 122°23'0 0.7
2017-Oct-20 21:58N 37°53' W 122°23'0 0.6
2017-Oct-20 21:28N 37°52' W 122°23'1 1.6
2017-Oct-20 20:56N 37°52' W 122°23'3 6.5
2017-Oct-20 20:30N 37°54' W 122°23'1 0.3
2017-Oct-20 18:30N 37°54' W 122°24'2 3.0
2017-Oct-20 17:59N 37°53' W 122°22'1 1.1
2017-Oct-20 17:23N 37°52' W 122°22'0 0.3
2017-Oct-20 16:00N 37°52' W 122°22'3 5.1
2017-Oct-20 15:30N 37°54' W 122°24'2 3.7
2017-Oct-20 14:57N 37°55' W 122°21'0 0.1
2017-Oct-20 14:28N 37°55' W 122°21'0 0.0
2017-Oct-18 22:42N 37°55' W 122°21'0 0.0
2017-Oct-18 22:30N 37°55' W 122°21'0 0.0
2017-Oct-18 22:00N 37°55' W 122°21'0 0.0
2017-Oct-18 21:30N 37°55' W 122°21'0 0.0
2017-Oct-18 20:54N 37°55' W 122°21'0 0.0
2017-Oct-18 20:25N 37°55' W 122°21'0 0.0
2017-Oct-18 19:59N 37°55' W 122°21'0 0.0
2017-Oct-18 19:27N 37°55' W 122°21'0 0.1
2017-Oct-18 19:00N 37°55' W 122°21'2 3.2
2017-Oct-18 18:30N 37°54' W 122°23'3 5.0
2017-Oct-18 17:58N 37°53' W 122°21'0 0.8
2017-Oct-18 17:30N 37°52' W 122°21'1 1.5
2017-Oct-18 16:57N 37°53' W 122°21'1 2.4
2017-Oct-18 16:31N 37°53' W 122°23'1 0.9
2017-Oct-18 15:57N 37°53' W 122°23'1 2.6
2017-Oct-18 15:30N 37°54' W 122°24'2 4.0
2017-Oct-18 15:00N 37°55' W 122°21'0 0.0
2017-Oct-18 00:34N 37°55' W 122°21'0 0.0
2017-Oct-18 00:30N 37°55' W 122°21'0 0.1
2017-Oct-17 23:50N 37°55' W 122°21'1 3.2
2017-Oct-17 23:30N 37°54' W 122°22'1 2.5
2017-Oct-17 23:00N 37°53' W 122°23'1 1.1
2017-Oct-17 22:31N 37°53' W 122°23'1 1.2
2017-Oct-17 21:57N 37°52' W 122°24'0 0.8
2017-Oct-17 21:30N 37°52' W 122°24'2 2.8
2017-Oct-17 20:55N 37°53' W 122°23'1 2.1
2017-Oct-17 20:30N 37°54' W 122°23'2 1.1
2017-Oct-17 18:53N 37°55' W 122°21'2 4.4
2017-Oct-17 18:25N 37°54' W 122°24'2 3.2
2017-Oct-17 17:48N 37°53' W 122°22'0 0.6
2017-Oct-17 17:30N 37°53' W 122°22'0 1.0
2017-Oct-17 17:01N 37°53' W 122°23'0 0.8
2017-Oct-17 16:28N 37°53' W 122°23'0 1.0
2017-Oct-17 16:00N 37°53' W 122°23'1 3.0
2017-Oct-17 15:30N 37°54' W 122°22'1 0.8
2017-Oct-17 14:32N 37°55' W 122°21'0 1.7
2017-Oct-17 14:29N 37°55' W 122°21'0 0.0
2017-Oct-16 19:36N 37°55' W 122°21'0 0.0
2017-Oct-16 19:25N 37°55' W 122°21'0 0.1
2017-Oct-16 19:00N 37°55' W 122°21'2 3.4
2017-Oct-16 18:30N 37°54' W 122°23'2 3.1
2017-Oct-16 18:00N 37°53' W 122°22'0 0.6
2017-Oct-16 17:30N 37°53' W 122°23'1 1.4
2017-Oct-16 17:00N 37°53' W 122°22'1 1.2
2017-Oct-16 16:20N 37°53' W 122°23'1 1.7
2017-Oct-16 16:00N 37°53' W 122°24'3 5.4
2017-Oct-16 15:30N 37°55' W 122°21'0 0.6
2017-Oct-16 15:00N 37°55' W 122°21'0 0.0
2017-Oct-15 20:47N 37°55' W 122°21'0 0.0
2017-Oct-15 20:30N 37°55' W 122°21'1 1.5
2017-Oct-15 20:00N 37°54' W 122°22'3 5.6
2017-Oct-15 19:30N 37°52' W 122°24'510.6
2017-Oct-15 19:01N 37°47' W 122°22'610.3
2017-Oct-15 18:24N 37°41' W 122°20'4 9.4
2017-Oct-15 18:00N 37°38' W 122°18'5 8.8
2017-Oct-15 17:30N 37°34' W 122°14'  
2017-Oct-12 23:37N 37°30' W 122°13'1 3.1
2017-Oct-12 23:24N 37°31' W 122°13'3 7.2
2017-Oct-12 23:00N 37°33' W 122°10'1 1.5
2017-Oct-12 22:29N 37°32' W 122°09'1 1.4
2017-Oct-12 22:00N 37°33' W 122°10'1 1.5
2017-Oct-12 21:30N 37°33' W 122°10'1 1.7
2017-Oct-12 20:58N 37°34' W 122°11'1 1.7
2017-Oct-12 20:30N 37°33' W 122°12'3 2.3
2017-Oct-12 19:08N 37°30' W 122°13'0 0.0
2017-Oct-12 18:45N 37°30' W 122°13'0 0.0
2017-Oct-12 16:40N 37°30' W 122°13'0 0.0
2017-Oct-12 16:14N 37°30' W 122°13'0 0.0
2017-Oct-12 15:55N 37°30' W 122°13'0 0.0
2017-Oct-12 15:25N 37°30' W 122°13'0 0.0
2017-Oct-12 15:00N 37°30' W 122°13'0 0.0
2017-Oct-12 14:21N 37°30' W 122°13'0 0.0
2017-Oct-12 12:43N 37°30' W 122°13'0 0.0
2017-Oct-12 12:21N 37°30' W 122°13'0 0.0
2017-Oct-12 11:55N 37°30' W 122°13'0 0.0
2017-Oct-12 11:29N 37°30' W 122°13'0 0.0
2017-Oct-12 08:13N 37°30' W 122°13'0 0.0
2017-Oct-12 01:55N 37°30' W 122°13'  
Track history (hours):
 
Tides and Currents Weather Stations Pressure Air Temp Water Temp Dewpoint Dewpoint Depression Visibility Wind Speed Wind Dir Waves Ship Positions

Robert G. Brownlee

Owner: MARINE SCIENCE INSTITUTE, REDWOOD CITY, CA. More information available from US FCC via Universal Licensing System and Coast Guard Vessel Documentation Center.

Last reported at 2017-Oct-22 01:26 UTC. Time now 2017-Oct-23 02:41 UTC.
Position N 37°55' W 122°21'.

MMSI: 366751060.

Date/timePositionNaut miles runAvg speedWind from/ knotsBaromVisibWave heightAir tempDewpointWater temp
2017-Oct-22 01:26N 37°55' W 122°21'0 0.0
2017-Oct-22 00:55N 37°55' W 122°21'0 0.0
2017-Oct-22 00:27N 37°55' W 122°21'0 0.0
2017-Oct-21 23:58N 37°55' W 122°21'0 0.0
2017-Oct-21 23:29N 37°55' W 122°21'0 0.0
2017-Oct-21 22:56N 37°55' W 122°21'0 0.0
2017-Oct-21 22:28N 37°55' W 122°21'0 0.0
2017-Oct-21 22:00N 37°55' W 122°21'0 0.0
2017-Oct-21 21:21N 37°55' W 122°21'0 0.0
2017-Oct-21 20:43N 37°55' W 122°21'0 0.0
2017-Oct-21 20:24N 37°55' W 122°21'0 0.0
2017-Oct-21 19:59N 37°55' W 122°21'0 0.0
2017-Oct-21 19:30N 37°55' W 122°21'0 0.0
2017-Oct-21 19:00N 37°55' W 122°21'1 2.8
2017-Oct-21 18:30N 37°54' W 122°23'1 1.8
2017-Oct-21 18:00N 37°54' W 122°24'1 2.3
2017-Oct-21 17:30N 37°53' W 122°23'1 1.1
2017-Oct-21 16:54N 37°52' W 122°22'1 1.0
2017-Oct-21 16:24N 37°52' W 122°23'0 0.3
2017-Oct-21 16:00N 37°52' W 122°23'1 1.8
2017-Oct-21 15:31N 37°53' W 122°24'2 4.1
2017-Oct-21 14:56N 37°55' W 122°21'0 0.0
2017-Oct-21 02:02N 37°55' W 122°21'0 0.0
2017-Oct-21 01:32N 37°55' W 122°21'0 0.0
2017-Oct-21 01:25N 37°55' W 122°21'0 0.0
2017-Oct-21 00:16N 37°55' W 122°21'0 0.2
2017-Oct-20 23:56N 37°55' W 122°21'1 1.6
2017-Oct-20 23:30N 37°54' W 122°22'2 3.7
2017-Oct-20 23:00N 37°53' W 122°23'0 0.7
2017-Oct-20 22:24N 37°53' W 122°23'0 0.7
2017-Oct-20 21:58N 37°53' W 122°23'0 0.6
2017-Oct-20 21:28N 37°52' W 122°23'1 1.6
2017-Oct-20 20:56N 37°52' W 122°23'3 6.5
2017-Oct-20 20:30N 37°54' W 122°23'1 0.3
2017-Oct-20 18:30N 37°54' W 122°24'2 3.0
2017-Oct-20 17:59N 37°53' W 122°22'1 1.1
2017-Oct-20 17:23N 37°52' W 122°22'0 0.3
2017-Oct-20 16:00N 37°52' W 122°22'3 5.1
2017-Oct-20 15:30N 37°54' W 122°24'2 3.7
2017-Oct-20 14:57N 37°55' W 122°21'0 0.1
2017-Oct-20 14:28N 37°55' W 122°21'0 0.0
2017-Oct-18 22:42N 37°55' W 122°21'0 0.0
2017-Oct-18 22:30N 37°55' W 122°21'0 0.0
2017-Oct-18 22:00N 37°55' W 122°21'0 0.0
2017-Oct-18 21:30N 37°55' W 122°21'0 0.0
2017-Oct-18 20:54N 37°55' W 122°21'0 0.0
2017-Oct-18 20:25N 37°55' W 122°21'0 0.0
2017-Oct-18 19:59N 37°55' W 122°21'0 0.0
2017-Oct-18 19:27N 37°55' W 122°21'0 0.1
2017-Oct-18 19:00N 37°55' W 122°21'2 3.2
2017-Oct-18 18:30N 37°54' W 122°23'3 5.0
2017-Oct-18 17:58N 37°53' W 122°21'0 0.8
2017-Oct-18 17:30N 37°52' W 122°21'1 1.5
2017-Oct-18 16:57N 37°53' W 122°21'1 2.4
2017-Oct-18 16:31N 37°53' W 122°23'1 0.9
2017-Oct-18 15:57N 37°53' W 122°23'1 2.6
2017-Oct-18 15:30N 37°54' W 122°24'2 4.0
2017-Oct-18 15:00N 37°55' W 122°21'0 0.0
2017-Oct-18 00:34N 37°55' W 122°21'0 0.0
2017-Oct-18 00:30N 37°55' W 122°21'0 0.1
2017-Oct-17 23:50N 37°55' W 122°21'1 3.2
2017-Oct-17 23:30N 37°54' W 122°22'1 2.5
2017-Oct-17 23:00N 37°53' W 122°23'1 1.1
2017-Oct-17 22:31N 37°53' W 122°23'1 1.2
2017-Oct-17 21:57N 37°52' W 122°24'0 0.8
2017-Oct-17 21:30N 37°52' W 122°24'2 2.8
2017-Oct-17 20:55N 37°53' W 122°23'1 2.1
2017-Oct-17 20:30N 37°54' W 122°23'2 1.1
2017-Oct-17 18:53N 37°55' W 122°21'2 4.4
2017-Oct-17 18:25N 37°54' W 122°24'2 3.2
2017-Oct-17 17:48N 37°53' W 122°22'0 0.6
2017-Oct-17 17:30N 37°53' W 122°22'0 1.0
2017-Oct-17 17:01N 37°53' W 122°23'0 0.8
2017-Oct-17 16:28N 37°53' W 122°23'0 1.0
2017-Oct-17 16:00N 37°53' W 122°23'1 3.0
2017-Oct-17 15:30N 37°54' W 122°22'1 0.8
2017-Oct-17 14:32N 37°55' W 122°21'0 1.7
2017-Oct-17 14:29N 37°55' W 122°21'0 0.0
2017-Oct-16 19:36N 37°55' W 122°21'0 0.0
2017-Oct-16 19:25N 37°55' W 122°21'0 0.1
2017-Oct-16 19:00N 37°55' W 122°21'2 3.4
2017-Oct-16 18:30N 37°54' W 122°23'2 3.1
2017-Oct-16 18:00N 37°53' W 122°22'0 0.6
2017-Oct-16 17:30N 37°53' W 122°23'1 1.4
2017-Oct-16 17:00N 37°53' W 122°22'1 1.2
2017-Oct-16 16:20N 37°53' W 122°23'1 1.7
2017-Oct-16 16:00N 37°53' W 122°24'3 5.4
2017-Oct-16 15:30N 37°55' W 122°21'0 0.6
2017-Oct-16 15:00N 37°55' W 122°21'0 0.0
2017-Oct-15 20:47N 37°55' W 122°21'0 0.0
2017-Oct-15 20:30N 37°55' W 122°21'1 1.5
2017-Oct-15 20:00N 37°54' W 122°22'3 5.6
2017-Oct-15 19:30N 37°52' W 122°24'510.6
2017-Oct-15 19:01N 37°47' W 122°22'610.3
2017-Oct-15 18:24N 37°41' W 122°20'4 9.4
2017-Oct-15 18:00N 37°38' W 122°18'5 8.8
2017-Oct-15 17:30N 37°34' W 122°14'  
2017-Oct-12 23:37N 37°30' W 122°13'1 3.1
2017-Oct-12 23:24N 37°31' W 122°13'3 7.2
2017-Oct-12 23:00N 37°33' W 122°10'1 1.5
2017-Oct-12 22:29N 37°32' W 122°09'1 1.4
2017-Oct-12 22:00N 37°33' W 122°10'1 1.5
2017-Oct-12 21:30N 37°33' W 122°10'1 1.7
2017-Oct-12 20:58N 37°34' W 122°11'1 1.7
2017-Oct-12 20:30N 37°33' W 122°12'3 2.3
2017-Oct-12 19:08N 37°30' W 122°13'0 0.0
2017-Oct-12 18:45N 37°30' W 122°13'0 0.0
2017-Oct-12 16:40N 37°30' W 122°13'0 0.0
2017-Oct-12 16:14N 37°30' W 122°13'0 0.0
2017-Oct-12 15:55N 37°30' W 122°13'0 0.0
2017-Oct-12 15:25N 37°30' W 122°13'0 0.0
2017-Oct-12 15:00N 37°30' W 122°13'0 0.0
2017-Oct-12 14:21N 37°30' W 122°13'0 0.0
2017-Oct-12 12:43N 37°30' W 122°13'0 0.0
2017-Oct-12 12:21N 37°30' W 122°13'0 0.0
2017-Oct-12 11:55N 37°30' W 122°13'0 0.0
2017-Oct-12 11:29N 37°30' W 122°13'0 0.0
2017-Oct-12 08:13N 37°30' W 122°13'0 0.0
2017-Oct-12 01:55N 37°30' W 122°13'  

Dump ship's entire track history